createdAt,value
2022-12-03T00:02:37.937Z,0.70
2022-12-03T00:05:49.061Z,0.70
2022-12-03T00:08:58.809Z,0.70
2022-12-03T00:12:09.397Z,0.70
2022-12-03T00:15:19.454Z,0.70
2022-12-03T00:18:28.809Z,0.70
2022-12-03T00:21:38.703Z,0.70
2022-12-03T00:24:49.068Z,0.72
2022-12-03T00:27:58.514Z,0.70
2022-12-03T00:31:07.833Z,0.74
2022-12-03T00:34:16.668Z,0.74
2022-12-03T00:37:25.848Z,0.80
2022-12-03T00:40:35.919Z,0.80
2022-12-03T00:43:46.102Z,0.80
2022-12-03T00:46:56.349Z,0.80
2022-12-03T00:50:06.710Z,0.80
2022-12-03T00:53:15.903Z,0.80
2022-12-03T00:56:25.337Z,0.78
2022-12-03T00:59:33.237Z,0.76
2022-12-03T01:02:44.837Z,0.72
2022-12-03T01:05:54.622Z,0.70
2022-12-03T01:09:01.778Z,0.70
2022-12-03T01:12:12.203Z,0.70
2022-12-03T01:15:22.587Z,0.70
2022-12-03T01:18:31.702Z,0.70
2022-12-03T01:21:41.507Z,0.70
2022-12-03T01:24:50.985Z,0.70
2022-12-03T01:28:01.601Z,0.70
2022-12-03T01:31:28.123Z,0.70
2022-12-03T01:34:37.562Z,0.70
2022-12-03T01:37:48.558Z,0.70
2022-12-03T01:40:58.384Z,0.70
2022-12-03T01:44:15.049Z,0.70
2022-12-03T01:47:28.947Z,0.70
2022-12-03T01:50:38.797Z,0.70
2022-12-03T01:53:47.646Z,0.70
2022-12-03T01:56:58.332Z,0.70
2022-12-03T02:00:09.195Z,0.70
2022-12-03T02:03:24.585Z,0.70
2022-12-03T02:06:34.807Z,0.70
2022-12-03T02:09:45.205Z,0.70
2022-12-03T02:12:59.931Z,0.70
2022-12-03T02:16:10.490Z,0.70
2022-12-03T02:19:27.299Z,0.70
2022-12-03T02:22:45.698Z,0.70
2022-12-03T02:25:55.818Z,0.70
2022-12-03T02:29:05.572Z,0.70
2022-12-03T02:32:15.937Z,0.70
2022-12-03T02:35:27.659Z,0.70
2022-12-03T02:38:39.239Z,0.70
2022-12-03T02:42:01.779Z,0.70
2022-12-03T02:45:16.803Z,0.70
2022-12-03T02:48:31.196Z,0.70
2022-12-03T02:51:40.940Z,0.70
2022-12-03T02:54:50.519Z,0.70
2022-12-03T02:58:00.125Z,0.70
2022-12-03T03:01:11.883Z,0.70
2022-12-03T03:04:20.696Z,0.70
2022-12-03T03:07:29.422Z,0.70
2022-12-03T03:10:41.018Z,0.70
2022-12-03T03:13:50.925Z,0.70
2022-12-03T03:17:00.925Z,0.72
2022-12-03T03:20:14.361Z,0.74
2022-12-03T03:23:25.848Z,0.76
2022-12-03T03:26:34.959Z,0.78
2022-12-03T03:29:44.010Z,0.76
2022-12-03T03:32:53.545Z,0.72
2022-12-03T03:36:03.773Z,0.72
2022-12-03T03:39:11.399Z,0.76
2022-12-03T03:42:20.769Z,0.80
2022-12-03T03:45:31.052Z,0.80
2022-12-03T03:48:42.055Z,0.80
2022-12-03T03:51:51.520Z,0.80
2022-12-03T03:55:01.228Z,0.80
2022-12-03T03:58:11.233Z,0.80
2022-12-03T04:01:21.300Z,0.80
2022-12-03T04:04:38.214Z,0.80
2022-12-03T04:07:47.093Z,0.82
2022-12-03T04:11:13.265Z,0.90
2022-12-03T04:14:22.294Z,0.88
2022-12-03T04:17:31.141Z,0.88
2022-12-03T04:20:40.841Z,0.90
2022-12-03T04:23:49.803Z,0.88
2022-12-03T04:27:16.675Z,0.90
2022-12-03T04:30:25.321Z,0.90
2022-12-03T04:33:59.845Z,0.86
2022-12-03T04:37:09.032Z,0.90
2022-12-03T04:40:38.644Z,0.90
2022-12-03T04:44:01.441Z,0.88
2022-12-03T04:47:16.690Z,0.88
2022-12-03T04:50:27.037Z,0.90
2022-12-03T04:53:36.399Z,0.90
2022-12-03T04:56:47.040Z,0.90
2022-12-03T04:59:56.890Z,0.90
2022-12-03T05:03:04.312Z,0.90
2022-12-03T05:06:14.167Z,0.90
2022-12-03T05:09:23.445Z,0.90
2022-12-03T05:12:32.254Z,0.90
2022-12-03T05:15:40.935Z,0.90
2022-12-03T05:18:50.176Z,0.90
2022-12-03T05:21:59.304Z,0.90
2022-12-03T05:25:09.951Z,0.90
2022-12-03T05:28:19.729Z,0.90
2022-12-03T05:31:29.182Z,0.94
2022-12-03T05:34:39.244Z,0.96
2022-12-03T05:37:47.735Z,1.00
2022-12-03T05:40:56.632Z,1.00
2022-12-03T05:44:05.181Z,1.00
2022-12-03T05:47:13.487Z,1.00
2022-12-03T05:50:24.137Z,1.00
2022-12-03T05:53:34.473Z,1.00
2022-12-03T05:56:44.388Z,1.00
2022-12-03T05:59:54.241Z,1.00
2022-12-03T06:03:02.151Z,1.00
2022-12-03T06:06:11.660Z,1.00
2022-12-03T06:09:20.687Z,1.00
2022-12-03T06:12:30.293Z,1.00
2022-12-03T06:15:43.550Z,1.00
2022-12-03T06:18:54.365Z,1.00
2022-12-03T06:22:03.372Z,1.00
2022-12-03T06:25:13.939Z,1.00
2022-12-03T06:28:22.981Z,1.00
2022-12-03T06:31:32.804Z,0.98
2022-12-03T06:34:40.279Z,0.98
2022-12-03T06:37:48.702Z,1.00
2022-12-03T06:40:57.584Z,1.00
2022-12-03T06:44:06.118Z,1.00
2022-12-03T06:47:14.498Z,1.00
2022-12-03T06:50:22.720Z,1.00
2022-12-03T06:53:30.824Z,1.00
2022-12-03T06:56:44.848Z,1.00
2022-12-03T06:59:54.943Z,1.00
2022-12-03T07:03:04.188Z,1.00
2022-12-03T07:06:13.802Z,1.08
2022-12-03T07:09:22.554Z,1.10
2022-12-03T07:12:33.173Z,1.10
2022-12-03T07:15:42.814Z,1.10
2022-12-03T07:18:52.525Z,1.16
2022-12-03T07:22:01.710Z,1.20
2022-12-03T07:25:15.769Z,1.20
2022-12-03T07:28:30.539Z,1.20
2022-12-03T07:31:40.206Z,1.20
2022-12-03T07:34:48.862Z,1.20
2022-12-03T07:37:57.942Z,1.30
2022-12-03T07:41:06.453Z,1.30
2022-12-03T07:44:15.347Z,1.30
2022-12-03T07:47:23.892Z,1.30
2022-12-03T07:50:32.567Z,1.30
2022-12-03T07:53:42.016Z,1.30
2022-12-03T07:56:57.968Z,1.32
2022-12-03T08:00:12.315Z,1.38
2022-12-03T08:03:20.507Z,1.40
2022-12-03T08:06:28.604Z,1.40
2022-12-03T08:09:36.785Z,1.40
2022-12-03T08:12:44.698Z,1.46
2022-12-03T08:15:53.423Z,1.50
2022-12-03T08:19:14.761Z,1.50
2022-12-03T08:22:24.221Z,1.60
2022-12-03T08:25:36.143Z,1.60
2022-12-03T08:28:45.511Z,1.60
2022-12-03T08:31:57.893Z,1.60
2022-12-03T08:35:15.226Z,1.70
2022-12-03T08:38:28.012Z,1.70
2022-12-03T08:41:55.944Z,1.76
2022-12-03T08:45:40.067Z,1.80
2022-12-03T08:48:49.709Z,1.82
2022-12-03T08:52:35.505Z,1.90
2022-12-03T08:59:16.778Z,1.90
2022-12-03T09:02:35.297Z,2.00
2022-12-03T09:08:56.819Z,2.00
2022-12-03T09:12:06.294Z,2.10
2022-12-03T09:15:16.587Z,2.20
2022-12-03T09:18:24.479Z,2.34
2022-12-03T09:21:32.791Z,2.46
2022-12-03T09:24:41.368Z,2.50
2022-12-03T09:27:50.032Z,2.60
2022-12-03T09:30:59.027Z,2.60
2022-12-03T09:34:08.263Z,2.70
2022-12-03T09:37:16.685Z,2.70
2022-12-03T09:40:26.163Z,2.80
2022-12-03T09:44:03.256Z,2.88
2022-12-03T09:47:08.035Z,2.90
2022-12-03T09:50:21.099Z,3.00
2022-12-03T09:53:34.568Z,3.00
2022-12-03T09:56:47.434Z,3.00
2022-12-03T09:59:56.040Z,3.00
2022-12-03T10:03:09.522Z,3.00
2022-12-03T10:06:23.434Z,3.08
2022-12-03T10:09:33.632Z,3.06
2022-12-03T10:12:42.068Z,3.10
2022-12-03T10:15:51.007Z,3.10
2022-12-03T10:19:02.938Z,3.10
2022-12-03T10:22:11.678Z,3.02
2022-12-03T10:25:23.677Z,3.00
2022-12-03T10:28:49.526Z,3.00
2022-12-03T10:32:05.894Z,2.92
2022-12-03T10:35:17.533Z,2.98
2022-12-03T10:38:26.661Z,3.00
2022-12-03T10:41:34.936Z,3.00
2022-12-03T10:44:43.823Z,3.00
2022-12-03T10:48:13.488Z,3.02
2022-12-03T10:51:24.449Z,3.10
2022-12-03T10:54:37.264Z,3.10
2022-12-03T10:57:52.493Z,3.10
2022-12-03T11:01:04.294Z,3.10
2022-12-03T11:04:23.224Z,3.10
2022-12-03T11:07:32.686Z,3.20
2022-12-03T11:10:41.464Z,3.20
2022-12-03T11:14:05.263Z,3.30
2022-12-03T11:17:13.988Z,3.30
2022-12-03T11:21:13.113Z,3.40
2022-12-03T11:24:34.268Z,3.40
2022-12-03T11:27:45.386Z,3.40
2022-12-03T11:31:31.694Z,3.40
2022-12-03T11:34:47.783Z,3.42
2022-12-03T11:37:57.070Z,3.50
2022-12-03T11:41:17.954Z,3.50
2022-12-03T11:44:37.835Z,3.60
2022-12-03T11:47:49.105Z,3.60
2022-12-03T11:50:58.916Z,3.70
2022-12-03T11:54:07.933Z,3.72
2022-12-03T11:57:36.168Z,3.82
2022-12-03T12:00:55.911Z,3.90
2022-12-03T12:04:03.532Z,3.94
2022-12-03T12:07:12.326Z,4.00
2022-12-03T12:10:46.333Z,4.06
2022-12-03T12:14:00.965Z,4.18
2022-12-03T12:17:37.218Z,4.30
2022-12-03T12:20:45.998Z,4.50
2022-12-03T12:23:55.657Z,4.60
2022-12-03T12:27:07.026Z,4.60
2022-12-03T12:30:20.564Z,4.58
2022-12-03T12:33:30.884Z,4.50
2022-12-03T12:36:41.040Z,4.40
2022-12-03T12:39:50.124Z,4.30
2022-12-03T12:43:05.323Z,4.30
2022-12-03T12:46:46.734Z,4.24
2022-12-03T12:49:51.684Z,4.20
2022-12-03T12:53:13.194Z,4.22
2022-12-03T12:56:31.138Z,4.20
2022-12-03T12:59:39.440Z,4.22
2022-12-03T13:02:54.359Z,4.20
2022-12-03T13:06:04.412Z,4.24
2022-12-03T13:09:20.316Z,4.20
2022-12-03T13:12:30.264Z,4.22
2022-12-03T13:15:49.974Z,4.28
2022-12-03T13:19:01.110Z,4.30
2022-12-03T13:22:20.626Z,4.30
2022-12-03T13:29:15.375Z,4.30
2022-12-03T13:32:31.020Z,4.30
2022-12-03T13:35:41.832Z,4.30
2022-12-03T13:38:51.586Z,4.30
2022-12-03T13:42:20.742Z,4.30
2022-12-03T13:45:39.861Z,4.30
2022-12-03T13:48:48.483Z,4.30
2022-12-03T13:51:57.151Z,4.30
2022-12-03T13:55:13.404Z,4.30
2022-12-03T13:58:21.629Z,4.40
2022-12-03T14:01:30.594Z,4.40
2022-12-03T14:04:39.076Z,4.40
2022-12-03T14:07:48.109Z,4.40
2022-12-03T14:11:00.330Z,4.40
2022-12-03T14:14:09.386Z,4.44
2022-12-03T14:17:17.875Z,4.50
2022-12-03T14:20:26.750Z,4.50
2022-12-03T14:23:35.117Z,4.50
2022-12-03T14:26:44.369Z,4.50
2022-12-03T14:29:53.373Z,4.50
2022-12-03T14:33:01.109Z,4.50
2022-12-03T14:36:11.258Z,4.50
2022-12-03T14:39:20.700Z,4.50
2022-12-03T14:42:29.598Z,4.50
2022-12-03T14:45:38.436Z,4.50
2022-12-03T14:48:46.695Z,4.50
2022-12-03T14:51:55.589Z,4.50
2022-12-03T14:55:04.515Z,4.44
2022-12-03T14:58:13.033Z,4.40
2022-12-03T15:01:22.159Z,4.40
2022-12-03T15:04:29.886Z,4.38
2022-12-03T15:07:40.227Z,4.30
2022-12-03T15:10:52.521Z,4.30
2022-12-03T15:14:01.771Z,4.30
2022-12-03T15:17:10.648Z,4.30
2022-12-03T15:20:19.660Z,4.26
2022-12-03T15:23:28.029Z,4.20
2022-12-03T15:26:37.091Z,4.20
2022-12-03T15:29:45.735Z,4.20
2022-12-03T15:32:54.386Z,4.20
2022-12-03T15:36:02.946Z,4.18
2022-12-03T15:39:11.271Z,4.12
2022-12-03T15:42:19.308Z,4.10
2022-12-03T15:45:27.768Z,4.10
2022-12-03T15:48:36.307Z,4.10
2022-12-03T15:51:44.971Z,4.10
2022-12-03T15:54:55.584Z,4.10
2022-12-03T15:58:03.435Z,4.00
2022-12-03T16:01:13.685Z,4.00
2022-12-03T16:04:22.865Z,4.00
2022-12-03T16:07:30.942Z,4.00
2022-12-03T16:10:38.916Z,4.00
2022-12-03T16:13:47.105Z,4.00
2022-12-03T16:16:55.574Z,3.92
2022-12-03T16:20:03.517Z,3.90
2022-12-03T16:23:11.369Z,3.90
2022-12-03T16:26:19.801Z,3.90
2022-12-03T16:29:28.587Z,3.90
2022-12-03T16:32:36.808Z,3.80
2022-12-03T16:35:44.647Z,3.80
2022-12-03T16:38:52.608Z,3.80
2022-12-03T16:42:00.408Z,3.80
2022-12-03T16:45:33.955Z,3.80
2022-12-03T16:48:42.482Z,3.78
2022-12-03T16:51:50.446Z,3.80
2022-12-03T16:54:58.670Z,3.80
2022-12-03T16:58:06.597Z,3.80
2022-12-03T17:01:15.730Z,3.80
2022-12-03T17:04:23.845Z,3.80
2022-12-03T17:07:31.904Z,3.80
2022-12-03T17:10:40.051Z,3.80
2022-12-03T17:13:48.253Z,3.80
2022-12-03T17:16:56.312Z,3.80
2022-12-03T17:20:06.473Z,3.80
2022-12-03T17:23:15.136Z,3.80
2022-12-03T17:26:23.401Z,3.80
2022-12-03T17:29:31.722Z,3.80
2022-12-03T17:32:41.767Z,3.80
2022-12-03T17:35:49.651Z,3.80
2022-12-03T17:38:59.019Z,3.80
2022-12-03T17:42:07.288Z,3.80
2022-12-03T17:45:16.962Z,3.80
2022-12-03T17:48:25.180Z,3.80
2022-12-03T17:51:33.364Z,3.78
2022-12-03T17:55:02.363Z,3.72
2022-12-03T17:58:09.304Z,3.70
2022-12-03T18:01:18.650Z,3.70
2022-12-03T18:04:26.855Z,3.70
2022-12-03T18:07:35.206Z,3.70
2022-12-03T18:10:43.447Z,3.70
2022-12-03T18:13:51.340Z,3.60
2022-12-03T18:16:59.224Z,3.60
2022-12-03T18:20:08.906Z,3.60
2022-12-03T18:23:18.526Z,3.54
2022-12-03T18:26:27.678Z,3.50
2022-12-03T18:29:35.816Z,3.50
2022-12-03T18:32:43.993Z,3.50
2022-12-03T18:35:56.690Z,3.50
2022-12-03T18:39:09.727Z,3.48
2022-12-03T18:42:21.945Z,3.40
2022-12-03T18:45:30.972Z,3.40
2022-12-03T18:48:41.079Z,3.40
2022-12-03T18:51:57.494Z,3.40
2022-12-03T18:55:12.918Z,3.40
2022-12-03T18:58:21.594Z,3.40
2022-12-03T19:01:31.438Z,3.40
2022-12-03T19:04:38.183Z,3.40
2022-12-03T19:07:46.916Z,3.40
2022-12-03T19:11:02.490Z,3.40
2022-12-03T19:14:11.222Z,3.36
2022-12-03T19:17:19.605Z,3.30
2022-12-03T19:20:27.644Z,3.30
2022-12-03T19:23:36.141Z,3.30
2022-12-03T19:26:44.705Z,3.30
2022-12-03T19:29:57.556Z,3.20
2022-12-03T19:33:06.262Z,3.20
2022-12-03T19:36:27.374Z,3.20
2022-12-03T19:39:36.043Z,3.20
2022-12-03T19:42:44.407Z,3.20
2022-12-03T19:45:53.799Z,3.20
2022-12-03T19:49:03.473Z,3.20
2022-12-03T19:52:12.341Z,3.22
2022-12-03T19:55:21.678Z,3.20
2022-12-03T19:58:33.026Z,3.22
2022-12-03T20:01:43.588Z,3.20
2022-12-03T20:04:52.353Z,3.20
2022-12-03T20:08:00.506Z,3.20
2022-12-03T20:11:17.156Z,3.20
2022-12-03T20:14:26.175Z,3.20
2022-12-03T20:17:35.784Z,3.20
2022-12-03T20:20:45.064Z,3.18
2022-12-03T20:23:52.987Z,3.10
2022-12-03T20:27:00.957Z,3.10
2022-12-03T20:30:12.272Z,3.10
2022-12-03T20:33:21.483Z,3.10
2022-12-03T20:36:32.286Z,3.10
2022-12-03T20:39:40.767Z,3.10
2022-12-03T20:42:51.349Z,3.10
2022-12-03T20:46:06.977Z,3.10
2022-12-03T20:49:15.246Z,3.10
2022-12-03T20:52:23.852Z,3.10
2022-12-03T20:55:31.757Z,3.10
2022-12-03T20:58:40.056Z,3.10
2022-12-03T21:01:48.368Z,3.10
2022-12-03T21:04:57.017Z,3.10
2022-12-03T21:08:05.078Z,3.14
2022-12-03T21:11:15.518Z,3.18
2022-12-03T21:14:23.571Z,3.20
2022-12-03T21:17:31.531Z,3.20
2022-12-03T21:20:45.872Z,3.20
2022-12-03T21:23:54.478Z,3.20
2022-12-03T21:27:03.756Z,3.18
2022-12-03T21:30:16.060Z,3.10
2022-12-03T21:33:24.324Z,3.10
2022-12-03T21:36:32.915Z,3.10
2022-12-03T21:39:41.706Z,3.10
2022-12-03T21:42:52.701Z,3.10
2022-12-03T21:46:01.587Z,3.10
2022-12-03T21:49:10.916Z,3.10
2022-12-03T21:52:19.351Z,3.10
2022-12-03T21:55:28.274Z,3.10
2022-12-03T21:58:37.566Z,3.00
2022-12-03T22:01:47.472Z,3.00
2022-12-03T22:04:56.423Z,3.00
2022-12-03T22:08:04.698Z,3.00
2022-12-03T22:11:17.900Z,3.00
2022-12-03T22:14:25.978Z,3.00
2022-12-03T22:17:36.218Z,3.00
2022-12-03T22:20:46.141Z,3.00
2022-12-03T22:23:52.291Z,3.00
2022-12-03T22:27:00.942Z,3.00
2022-12-03T22:30:11.472Z,3.02
2022-12-03T22:33:19.727Z,3.04
2022-12-03T22:36:27.686Z,3.08
2022-12-03T22:39:35.793Z,3.10
2022-12-03T22:42:49.350Z,3.10
2022-12-03T22:45:59.166Z,3.10
2022-12-03T22:49:07.916Z,3.10
2022-12-03T22:52:15.725Z,3.10
2022-12-03T22:55:23.792Z,3.10
2022-12-03T22:58:32.627Z,3.10
2022-12-03T23:01:43.105Z,3.10
2022-12-03T23:04:50.987Z,3.10
2022-12-03T23:07:58.940Z,3.10
2022-12-03T23:11:07.450Z,3.08
2022-12-03T23:14:15.526Z,3.08
2022-12-03T23:17:23.301Z,3.06
2022-12-03T23:20:31.762Z,3.02
2022-12-03T23:23:39.465Z,3.00
2022-12-03T23:26:47.645Z,3.00
2022-12-03T23:29:55.860Z,3.00
2022-12-03T23:33:04.143Z,3.00
2022-12-03T23:36:13.440Z,3.00
2022-12-03T23:39:21.234Z,3.00
2022-12-03T23:42:29.193Z,3.00
2022-12-03T23:45:38.187Z,3.00
2022-12-03T23:48:47.006Z,3.00
2022-12-03T23:51:54.880Z,3.00
2022-12-03T23:55:02.675Z,3.00
2022-12-03T23:58:10.871Z,3.00
